Time;durP1;ratioP1;P1;durP2;ratioP2;P2;SDS_P1;SDS_P2;PMS_P1;PMS_P2;Temp;Humidity;BMP_temperature;BMP_pressure;BME280_temperature;BME280_humidity;BME280_pressure;Samples;Min_cycle;Max_cycle;Signal;HPM_P1;HPM_P2
2020/12/23 00:02:18;;;;;;;;;;;;;;;;;;5076553;28;20344;-63
2020/12/23 00:04:45;;;;;;;;;;;;;;;;;;5063106;28;19925;-63
2020/12/23 00:07:14;;;;;;;;;;;;;;;;;;5070718;28;19932;-65
2020/12/23 00:09:42;;;;;;;;;;;;;;;;;;5072862;28;19978;-64
2020/12/23 00:12:09;;;;;;;;;;;;;;;;;;5073768;28;19925;-64
2020/12/23 00:14:36;;;;;;;;;;;;;;;;;;5073773;28;19925;-63
2020/12/23 00:17:03;;;;;;;;;;;;;;;;;;5072324;28;19939;-65
2020/12/23 00:19:30;;;;;;;;;;;;;;;;;;5069653;28;19987;-69
2020/12/23 00:21:58;;;;;;;;;;;;;;;;;;5072996;28;19931;-65
2020/12/23 00:24:25;;;;;;;;;;;;;;;;;;5073415;28;19960;-63
2020/12/23 00:26:52;;;;;;;;;;;;;;;;;;5072630;28;20380;-63
2020/12/23 00:29:19;;;;;;;;;;;;;;;;;;5072952;28;19930;-63
2020/12/23 00:31:46;;;;;;;;;;;;;;;;;;5073455;28;20427;-63
2020/12/23 00:34:13;;;;;;;;;;;;;;;;;;5072645;28;19928;-66
2020/12/23 00:36:40;;;;;;;;;;;;;;;;;;5069049;28;19979;-63
2020/12/23 00:39:08;;;;;;;;;;;;;;;;;;5068825;28;20398;-63
2020/12/23 00:41:35;;;;;;;;;;;;;;;;;;5068505;28;19928;-64
2020/12/23 00:44:02;;;;;;;;;;;;;;;;;;5073026;28;19975;-66
2020/12/23 00:46:29;;;;;;;;;;;;;;;;;;5073318;28;19924;-63
2020/12/23 00:48:56;;;;;;;;;;;;;;;;;;5070555;28;20351;-63
2020/12/23 00:51:23;;;;;;;;;;;;;;;;;;5064233;28;19931;-63
2020/12/23 00:53:50;;;;;;;;;;;;;;;;;;5070614;28;19924;-63
2020/12/23 00:56:17;;;;;;;;;;;;;;;;;;5064630;28;19925;-63
2020/12/23 00:58:44;;;;;;;;;;;;;;;;;;5073017;28;19928;-63
2020/12/23 01:01:11;;;;;;;;;;;;;;;;;;5062163;28;19928;-63
2020/12/23 01:03:44;;;;;;;;;;;;;;;;;;5073032;28;19924;-63
2020/12/23 01:06:12;;;;;;;;;;;;;;;;;;5072526;28;19928;-63
2020/12/23 01:08:39;;;;;;;;;;;;;;;;;;5072279;28;19932;-63
2020/12/23 01:11:06;;;;;;;;;;;;;;;;;;5062136;28;20375;-63
2020/12/23 01:13:34;;;;;;;;;;;;;;;;;;5056440;28;20026;-63
2020/12/23 01:16:01;;;;;;;;;;;;;;;;;;5072547;28;19931;-69
2020/12/23 01:18:28;;;;;;;;;;;;;;;;;;5065654;28;20311;-63
2020/12/23 01:20:55;;;;;;;;;;;;;;;;;;5072091;28;20271;-63
2020/12/23 01:23:22;;;;;;;;;;;;;;;;;;5072476;28;19934;-64
2020/12/23 01:25:49;;;;;;;;;;;;;;;;;;5072505;28;19975;-66
2020/12/23 01:28:16;;;;;;;;;;;;;;;;;;5070806;28;20023;-63
2020/12/23 01:30:43;;;;;;;;;;;;;;;;;;5071808;28;19932;-63
2020/12/23 01:33:10;;;;;;;;;;;;;;;;;;5078374;28;19931;-65
2020/12/23 01:35:37;;;;;;;;;;;;;;;;;;5075354;28;19924;-63
2020/12/23 01:38:05;;;;;;;;;;;;;;;;;;5071931;28;19931;-63
2020/12/23 01:40:32;;;;;;;;;;;;;;;;;;5071249;28;19935;-68
2020/12/23 01:42:59;;;;;;;;;;;;;;;;;;5072160;28;20290;-63
2020/12/23 01:45:26;;;;;;;;;;;;;;;;;;5067980;28;19929;-63
2020/12/23 01:47:53;;;;;;;;;;;;;;;;;;5071646;28;19930;-63
2020/12/23 01:50:21;;;;;;;;;;;;;;;;;;5071226;28;20115;-63
2020/12/23 01:52:48;;;;;;;;;;;;;;;;;;5071731;28;19925;-63
2020/12/23 01:55:15;;;;;;;;;;;;;;;;;;5072030;28;19925;-64
2020/12/23 01:57:42;;;;;;;;;;;;;;;;;;5056398;28;19938;-63
2020/12/23 02:00:09;;;;;;;;;;;;;;;;;;5071078;28;19930;-65
2020/12/23 02:02:36;;;;;;;;;;;;;;;;;;5064402;28;20053;-63
2020/12/23 02:05:03;;;;;;;;;;;;;;;;;;5084600;22;19924;-68
2020/12/23 02:07:30;;;;;;;;;;;;;;;;;;5074444;28;19931;-68
2020/12/23 02:09:57;;;;;;;;;;;;;;;;;;5073624;28;20298;-68
2020/12/23 02:12:24;;;;;;;;;;;;;;;;;;5072995;28;20307;-68
2020/12/23 02:14:54;;;;;;;;;;;;;;;;;;5073717;28;19925;-68
2020/12/23 02:17:21;;;;;;;;;;;;;;;;;;5073807;28;19924;-68
2020/12/23 02:19:51;;;;;;;;;;;;;;;;;;5073980;28;19924;-68
2020/12/23 02:22:18;;;;;;;;;;;;;;;;;;5073167;28;20016;-68
2020/12/23 02:24:45;;;;;;;;;;;;;;;;;;5073813;28;19974;-68
2020/12/23 02:27:12;;;;;;;;;;;;;;;;;;5073471;28;20019;-68
2020/12/23 02:29:39;;;;;;;;;;;;;;;;;;5072791;28;19990;-68
2020/12/23 02:32:06;;;;;;;;;;;;;;;;;;5083846;28;19931;-68
2020/12/23 02:34:40;;;;;;;;;;;;;;;;;;5084697;28;20371;-68
2020/12/23 02:37:08;;;;;;;;;;;;;;;;;;5089090;28;19931;-68
2020/12/23 02:39:35;;;;;;;;;;;;;;;;;;5087163;28;19986;-68
2020/12/23 02:42:02;;;;;;;;;;;;;;;;;;5088908;28;19928;-69
2020/12/23 02:44:29;;;;;;;;;;;;;;;;;;5088573;28;19934;-68
2020/12/23 02:46:56;;;;;;;;;;;;;;;;;;5088792;28;20470;-68
2020/12/23 02:49:23;;;;;;;;;;;;;;;;;;5090805;28;19937;-68
2020/12/23 02:51:50;;;;;;;;;;;;;;;;;;5089552;28;19955;-69
2020/12/23 02:54:18;;;;;;;;;;;;;;;;;;5095768;28;19931;-69
2020/12/23 02:56:45;;;;;;;;;;;;;;;;;;5102933;28;19927;-68
2020/12/23 02:59:12;;;;;;;;;;;;;;;;;;5107507;28;19990;-68
2020/12/23 03:01:39;;;;;;;;;;;;;;;;;;5110452;28;19967;-68
2020/12/23 03:04:06;;;;;;;;;;;;;;;;;;5100784;28;19928;-68
2020/12/23 03:06:33;;;;;;;;;;;;;;;;;;5090111;28;19928;-68
2020/12/23 03:09:00;;;;;;;;;;;;;;;;;;5096330;28;19924;-68
2020/12/23 03:11:27;;;;;;;;;;;;;;;;;;5092381;28;20847;-67
2020/12/23 03:13:54;;;;;;;;;;;;;;;;;;5097655;28;19931;-68
2020/12/23 03:16:22;;;;;;;;;;;;;;;;;;5108927;28;20458;-68
2020/12/23 03:18:49;;;;;;;;;;;;;;;;;;5092374;28;20393;-68
2020/12/23 03:21:16;;;;;;;;;;;;;;;;;;5106157;28;20022;-68
2020/12/23 03:23:43;;;;;;;;;;;;;;;;;;5110422;28;20013;-68
2020/12/23 03:26:12;;;;;;;;;;;;;;;;;;5104614;28;19928;-68
2020/12/23 03:28:40;;;;;;;;;;;;;;;;;;5092918;28;19931;-68
2020/12/23 03:31:07;;;;;;;;;;;;;;;;;;5104520;28;20026;-68
2020/12/23 03:33:34;;;;;;;;;;;;;;;;;;5089938;28;19928;-68
2020/12/23 03:36:01;;;;;;;;;;;;;;;;;;5096491;28;19923;-68
2020/12/23 03:38:28;;;;;;;;;;;;;;;;;;5093757;28;19924;-68
2020/12/23 03:40:55;;;;;;;;;;;;;;;;;;5095034;28;20026;-67
2020/12/23 03:43:22;;;;;;;;;;;;;;;;;;5093854;28;19939;-68
2020/12/23 03:45:49;;;;;;;;;;;;;;;;;;5094965;28;19924;-68
2020/12/23 03:48:17;;;;;;;;;;;;;;;;;;5096232;28;19946;-68
2020/12/23 03:50:45;;;;;;;;;;;;;;;;;;5101023;28;20025;-67
2020/12/23 03:53:12;;;;;;;;;;;;;;;;;;5104017;28;19930;-68
2020/12/23 03:55:39;;;;;;;;;;;;;;;;;;5103155;28;19924;-68
2020/12/23 03:58:06;;;;;;;;;;;;;;;;;;5095960;28;20014;-68
2020/12/23 04:00:33;;;;;;;;;;;;;;;;;;5099787;28;20014;-68
2020/12/23 04:03:00;;;;;;;;;;;;;;;;;;5099521;28;19930;-68
2020/12/23 04:05:35;;;;;;;;;;;;;;;;;;5105697;28;20011;-68
2020/12/23 04:08:03;;;;;;;;;;;;;;;;;;5101624;28;19974;-69
2020/12/23 04:10:30;;;;;;;;;;;;;;;;;;5105709;28;20098;-68
2020/12/23 04:12:57;;;;;;;;;;;;;;;;;;5106122;28;19934;-68
2020/12/23 04:15:24;;;;;;;;;;;;;;;;;;5111741;28;19928;-68
2020/12/23 04:18:11;;;;;;;;;;;;;;;;;;4282814;28;10000018;-69
2020/12/23 04:20:41;;;;;;;;;;;;;;;;;;2085207;28;10002121;-68
2020/12/23 04:23:08;;;;;;;;;;;;;;;;;;5080710;28;19930;-68
2020/12/23 04:25:35;;;;;;;;;;;;;;;;;;5091543;28;20378;-68
2020/12/23 04:28:02;;;;;;;;;;;;;;;;;;5082403;28;19931;-68
2020/12/23 04:30:29;;;;;;;;;;;;;;;;;;5093500;28;19924;-69
2020/12/23 04:32:56;;;;;;;;;;;;;;;;;;5088120;28;19924;-68
2020/12/23 04:35:23;;;;;;;;;;;;;;;;;;5079684;28;20021;-67
2020/12/23 04:37:50;;;;;;;;;;;;;;;;;;5079557;28;19939;-68
2020/12/23 04:40:17;;;;;;;;;;;;;;;;;;5079014;28;19956;-69
2020/12/23 04:42:44;;;;;;;;;;;;;;;;;;5075932;28;20133;-69
2020/12/23 04:45:12;;;;;;;;;;;;;;;;;;5073835;28;19925;-68
2020/12/23 04:47:39;;;;;;;;;;;;;;;;;;5088325;28;20397;-68
2020/12/23 04:50:06;;;;;;;;;;;;;;;;;;5086641;28;19924;-68
2020/12/23 04:52:33;;;;;;;;;;;;;;;;;;5084368;28;20471;-68
2020/12/23 04:55:00;;;;;;;;;;;;;;;;;;5075437;28;19924;-68
2020/12/23 04:57:28;;;;;;;;;;;;;;;;;;5082328;28;19946;-68
2020/12/23 04:59:55;;;;;;;;;;;;;;;;;;5074709;28;19935;-68
2020/12/23 05:02:25;;;;;;;;;;;;;;;;;;5086276;28;19934;-68
2020/12/23 05:04:52;;;;;;;;;;;;;;;;;;5090149;28;20219;-68
2020/12/23 05:07:19;;;;;;;;;;;;;;;;;;5076585;28;20019;-68
2020/12/23 05:09:46;;;;;;;;;;;;;;;;;;5083402;28;19924;-68
2020/12/23 05:12:13;;;;;;;;;;;;;;;;;;5088758;28;19928;-68
2020/12/23 05:14:41;;;;;;;;;;;;;;;;;;5072489;28;20398;-69
2020/12/23 05:17:09;;;;;;;;;;;;;;;;;;5084651;28;19928;-68
2020/12/23 05:19:36;;;;;;;;;;;;;;;;;;5091112;28;19978;-68
2020/12/23 05:22:04;;;;;;;;;;;;;;;;;;5081391;28;19928;-67
2020/12/23 05:24:31;;;;;;;;;;;;;;;;;;5082564;28;20007;-68
2020/12/23 05:26:58;;;;;;;;;;;;;;;;;;5073800;28;19931;-68
2020/12/23 05:29:25;;;;;;;;;;;;;;;;;;5080409;28;20063;-68
2020/12/23 05:31:52;;;;;;;;;;;;;;;;;;5077494;28;19938;-68
2020/12/23 05:34:19;;;;;;;;;;;;;;;;;;5075878;28;19940;-69
2020/12/23 05:36:46;;;;;;;;;;;;;;;;;;5076250;28;19946;-68
2020/12/23 05:39:13;;;;;;;;;;;;;;;;;;5083876;28;20276;-68
2020/12/23 05:41:41;;;;;;;;;;;;;;;;;;5076293;28;19929;-68
2020/12/23 05:44:08;;;;;;;;;;;;;;;;;;5088059;28;19946;-68
2020/12/23 05:46:35;;;;;;;;;;;;;;;;;;5078098;28;20374;-68
2020/12/23 05:49:02;;;;;;;;;;;;;;;;;;5087272;28;19924;-68
2020/12/23 05:51:29;;;;;;;;;;;;;;;;;;5086367;28;19928;-68
2020/12/23 05:53:56;;;;;;;;;;;;;;;;;;5081403;28;19931;-67
2020/12/23 05:56:23;;;;;;;;;;;;;;;;;;5081127;28;19928;-68
2020/12/23 05:58:50;;;;;;;;;;;;;;;;;;5088286;28;19928;-68
2020/12/23 06:01:17;;;;;;;;;;;;;;;;;;5085102;28;19924;-68
2020/12/23 06:03:44;;;;;;;;;;;;;;;;;;5081822;28;20491;-68
2020/12/23 06:06:12;;;;;;;;;;;;;;;;;;5072944;28;20329;-67
2020/12/23 06:08:39;;;;;;;;;;;;;;;;;;5070922;28;19928;-68
2020/12/23 06:11:06;;;;;;;;;;;;;;;;;;5087838;28;20363;-68
2020/12/23 06:13:33;;;;;;;;;;;;;;;;;;5087737;28;20306;-68
2020/12/23 06:16:00;;;;;;;;;;;;;;;;;;5086490;28;19932;-69
2020/12/23 06:18:27;;;;;;;;;;;;;;;;;;5086353;28;20363;-68
2020/12/23 06:20:54;;;;;;;;;;;;;;;;;;5100996;28;20022;-69
2020/12/23 06:23:21;;;;;;;;;;;;;;;;;;5106893;28;20034;-69
2020/12/23 06:25:48;;;;;;;;;;;;;;;;;;5097223;28;19939;-68
2020/12/23 06:28:16;;;;;;;;;;;;;;;;;;5087776;28;20108;-68
2020/12/23 06:30:43;;;;;;;;;;;;;;;;;;5087395;28;19924;-67
2020/12/23 06:33:10;;;;;;;;;;;;;;;;;;5104962;28;19938;-68
2020/12/23 06:35:37;;;;;;;;;;;;;;;;;;5088739;28;20262;-68
2020/12/23 06:38:04;;;;;;;;;;;;;;;;;;5097127;28;19934;-68
2020/12/23 06:40:31;;;;;;;;;;;;;;;;;;5091778;28;20366;-68
2020/12/23 06:42:58;;;;;;;;;;;;;;;;;;5101344;28;19927;-67
2020/12/23 06:45:26;;;;;;;;;;;;;;;;;;5108088;28;19932;-69
2020/12/23 06:47:53;;;;;;;;;;;;;;;;;;5099874;28;20287;-68
2020/12/23 06:50:20;;;;;;;;;;;;;;;;;;5106248;28;19928;-68
2020/12/23 06:52:47;;;;;;;;;;;;;;;;;;5095455;28;19936;-68
2020/12/23 06:55:14;;;;;;;;;;;;;;;;;;5094788;28;20316;-69
2020/12/23 06:57:44;;;;;;;;;;;;;;;;;;5090603;28;20256;-68
2020/12/23 07:00:11;;;;;;;;;;;;;;;;;;5091299;28;19931;-68
2020/12/23 07:02:38;;;;;;;;;;;;;;;;;;5101295;28;20010;-68
2020/12/23 07:05:05;;;;;;;;;;;;;;;;;;5094403;28;19930;-68
2020/12/23 07:07:38;;;;;;;;;;;;;;;;;;5096636;28;20027;-69
2020/12/23 07:10:05;;;;;;;;;;;;;;;;;;5104282;28;20003;-68
2020/12/23 07:12:33;;;;;;;;;;;;;;;;;;5110113;28;19932;-69
2020/12/23 07:15:00;;;;;;;;;;;;;;;;;;5104134;28;20347;-68
2020/12/23 07:17:27;;;;;;;;;;;;;;;;;;5098411;28;19924;-69
2020/12/23 07:19:54;;;;;;;;;;;;;;;;;;5097353;28;20088;-68
2020/12/23 07:22:21;;;;;;;;;;;;;;;;;;5099658;28;19924;-68
2020/12/23 07:24:48;;;;;;;;;;;;;;;;;;5107121;28;19935;-69
2020/12/23 07:27:15;;;;;;;;;;;;;;;;;;5096788;28;19932;-68
2020/12/23 07:29:45;;;;;;;;;;;;;;;;;;5095517;28;20272;-68
2020/12/23 07:32:12;;;;;;;;;;;;;;;;;;5101155;28;19932;-68
2020/12/23 07:34:39;;;;;;;;;;;;;;;;;;5090666;28;20019;-69
2020/12/23 07:37:06;;;;;;;;;;;;;;;;;;5104986;28;20412;-67
2020/12/23 07:39:33;;;;;;;;;;;;;;;;;;5096543;28;19951;-69
2020/12/23 07:42:00;;;;;;;;;;;;;;;;;;5095739;28;19935;-68
2020/12/23 07:44:28;;;;;;;;;;;;;;;;;;5099186;28;19924;-70
2020/12/23 07:46:55;;;;;;;;;;;;;;;;;;5095562;28;20391;-68
2020/12/23 07:49:22;;;;;;;;;;;;;;;;;;5096547;28;20238;-68
2020/12/23 07:51:49;;;;;;;;;;;;;;;;;;5097886;28;20337;-68
2020/12/23 07:54:16;;;;;;;;;;;;;;;;;;5102265;28;19935;-68
2020/12/23 07:56:43;;;;;;;;;;;;;;;;;;5108762;28;19930;-68
2020/12/23 07:59:12;;;;;;;;;;;;;;;;;;5098175;28;20386;-68
2020/12/23 08:01:39;;;;;;;;;;;;;;;;;;5095785;28;19923;-68
2020/12/23 08:04:06;;;;;;;;;;;;;;;;;;5108319;28;20422;-69
2020/12/23 08:06:33;;;;;;;;;;;;;;;;;;5094127;28;19928;-68
2020/12/23 08:09:01;;;;;;;;;;;;;;;;;;5099545;28;19924;-68
2020/12/23 08:11:28;;;;;;;;;;;;;;;;;;5092874;28;20022;-70
2020/12/23 08:13:55;;;;;;;;;;;;;;;;;;5103266;28;20276;-68
2020/12/23 08:16:22;;;;;;;;;;;;;;;;;;5104191;28;19928;-68
2020/12/23 08:18:49;;;;;;;;;;;;;;;;;;5098077;28;20282;-68
2020/12/23 08:21:17;;;;;;;;;;;;;;;;;;5091917;28;19939;-68
2020/12/23 08:23:44;;;;;;;;;;;;;;;;;;5097711;28;20023;-69
2020/12/23 08:26:11;;;;;;;;;;;;;;;;;;5102795;28;19962;-69
2020/12/23 08:28:38;;;;;;;;;;;;;;;;;;5081590;28;19935;-70
2020/12/23 08:31:05;;;;;;;;;;;;;;;;;;5105488;28;19927;-69
2020/12/23 08:33:32;;;;;;;;;;;;;;;;;;5102418;28;19932;-70
2020/12/23 08:35:59;;;;;;;;;;;;;;;;;;5096062;28;19928;-68
2020/12/23 08:38:34;;;;;;;;;;;;;;;;;;5091433;28;19928;-69
2020/12/23 08:41:01;;;;;;;;;;;;;;;;;;5101667;28;20239;-68
2020/12/23 08:43:29;;;;;;;;;;;;;;;;;;5111247;28;20010;-69
2020/12/23 08:45:56;;;;;;;;;;;;;;;;;;5092415;28;19982;-69
2020/12/23 08:48:23;;;;;;;;;;;;;;;;;;5090242;28;20350;-68
2020/12/23 08:50:50;;;;;;;;;;;;;;;;;;5100486;28;20387;-68
2020/12/23 08:53:17;;;;;;;;;;;;;;;;;;5094945;28;19932;-68
2020/12/23 08:55:46;;;;;;;;;;;;;;;;;;5087749;28;19934;-68
2020/12/23 08:58:13;;;;;;;;;;;;;;;;;;5092903;28;20060;-68
2020/12/23 09:00:40;;;;;;;;;;;;;;;;;;5089707;28;19934;-69
2020/12/23 09:03:07;;;;;;;;;;;;;;;;;;5090192;28;19974;-69
2020/12/23 09:05:36;;;;;;;;;;;;;;;;;;5100705;28;19938;-69
2020/12/23 09:08:05;;;;;;;;;;;;;;;;;;5089399;28;19927;-69
2020/12/23 09:10:32;;;;;;;;;;;;;;;;;;5101424;28;19944;-70
2020/12/23 09:13:00;;;;;;;;;;;;;;;;;;5107107;28;19928;-69
2020/12/23 09:15:27;;;;;;;;;;;;;;;;;;5107149;28;20347;-70
2020/12/23 09:17:54;;;;;;;;;;;;;;;;;;5095414;28;20148;-69
2020/12/23 09:20:21;;;;;;;;;;;;;;;;;;5090014;28;20440;-69
2020/12/23 09:22:49;;;;;;;;;;;;;;;;;;5098114;28;20036;-69
2020/12/23 09:25:16;;;;;;;;;;;;;;;;;;5094678;28;19974;-69
2020/12/23 09:27:43;;;;;;;;;;;;;;;;;;5096601;28;19928;-69
2020/12/23 09:30:10;;;;;;;;;;;;;;;;;;5097082;28;19935;-69
2020/12/23 09:32:37;;;;;;;;;;;;;;;;;;5091052;28;20334;-69
2020/12/23 09:35:05;;;;;;;;;;;;;;;;;;5089864;28;19971;-69
2020/12/23 09:37:32;;;;;;;;;;;;;;;;;;5090513;28;20434;-69
2020/12/23 09:39:59;;;;;;;;;;;;;;;;;;5099266;28;19931;-70
2020/12/23 09:42:26;;;;;;;;;;;;;;;;;;5091324;28;19992;-69
2020/12/23 09:44:53;;;;;;;;;;;;;;;;;;5098955;28;19928;-69
2020/12/23 09:47:20;;;;;;;;;;;;;;;;;;5090290;28;20011;-69
2020/12/23 09:49:48;;;;;;;;;;;;;;;;;;5101834;28;19927;-69
2020/12/23 09:52:15;;;;;;;;;;;;;;;;;;5102933;28;19998;-70
2020/12/23 09:54:42;;;;;;;;;;;;;;;;;;5087536;28;19934;-69
2020/12/23 09:57:09;;;;;;;;;;;;;;;;;;5091299;28;19928;-69
2020/12/23 09:59:36;;;;;;;;;;;;;;;;;;5098688;28;19931;-69
2020/12/23 10:02:03;;;;;;;;;;;;;;;;;;5086540;28;19928;-70
2020/12/23 10:04:30;;;;;;;;;;;;;;;;;;5089288;28;19928;-69
2020/12/23 10:06:57;;;;;;;;;;;;;;;;;;5092216;28;20438;-70
2020/12/23 10:09:38;;;;;;;;;;;;;;;;;;5088815;28;19993;-68
2020/12/23 10:12:06;;;;;;;;;;;;;;;;;;5101316;28;19928;-69
2020/12/23 10:14:33;;;;;;;;;;;;;;;;;;5106605;28;19947;-70
2020/12/23 10:17:00;;;;;;;;;;;;;;;;;;5097257;28;19986;-69
2020/12/23 10:19:27;;;;;;;;;;;;;;;;;;5101814;28;20018;-69
2020/12/23 10:21:54;;;;;;;;;;;;;;;;;;5090848;28;19928;-69
2020/12/23 10:24:21;;;;;;;;;;;;;;;;;;5096202;28;19971;-68
2020/12/23 10:26:49;;;;;;;;;;;;;;;;;;5097797;28;19930;-69
2020/12/23 10:29:16;;;;;;;;;;;;;;;;;;5096761;28;19931;-69
2020/12/23 10:31:43;;;;;;;;;;;;;;;;;;5098241;28;20026;-70
2020/12/23 10:34:10;;;;;;;;;;;;;;;;;;5088490;28;19951;-70
2020/12/23 10:36:37;;;;;;;;;;;;;;;;;;5086727;28;20383;-69
2020/12/23 10:39:04;;;;;;;;;;;;;;;;;;5086543;28;19928;-70
2020/12/23 10:41:32;;;;;;;;;;;;;;;;;;5089391;28;19934;-70
2020/12/23 10:43:59;;;;;;;;;;;;;;;;;;5096714;28;20379;-70
2020/12/23 10:46:26;;;;;;;;;;;;;;;;;;5090994;28;19938;-71
2020/12/23 10:48:53;;;;;;;;;;;;;;;;;;5090636;28;20014;-70
2020/12/23 10:51:20;;;;;;;;;;;;;;;;;;5085625;28;20373;-69
2020/12/23 10:53:47;;;;;;;;;;;;;;;;;;5089450;28;19980;-70
2020/12/23 10:56:14;;;;;;;;;;;;;;;;;;5087270;28;19975;-69
2020/12/23 10:58:41;;;;;;;;;;;;;;;;;;5097091;28;19927;-69
2020/12/23 11:01:08;;;;;;;;;;;;;;;;;;5100150;28;20022;-69
2020/12/23 11:03:36;;;;;;;;;;;;;;;;;;5089398;28;20011;-69
2020/12/23 11:06:03;;;;;;;;;;;;;;;;;;5088325;28;19924;-72
2020/12/23 11:08:30;;;;;;;;;;;;;;;;;;5087014;28;19928;-69
2020/12/23 11:10:57;;;;;;;;;;;;;;;;;;5087171;28;19935;-69
2020/12/23 11:13:24;;;;;;;;;;;;;;;;;;5095746;28;20438;-69
2020/12/23 11:15:52;;;;;;;;;;;;;;;;;;5086952;28;20019;-69
2020/12/23 11:18:19;;;;;;;;;;;;;;;;;;5090269;28;20365;-68
2020/12/23 11:20:46;;;;;;;;;;;;;;;;;;5090574;28;20429;-69
2020/12/23 11:23:14;;;;;;;;;;;;;;;;;;5095276;28;19927;-68
2020/12/23 11:25:41;;;;;;;;;;;;;;;;;;5091558;28;21277;-69
2020/12/23 11:28:08;;;;;;;;;;;;;;;;;;5086561;28;19939;-68
2020/12/23 11:30:36;;;;;;;;;;;;;;;;;;5091734;28;20406;-69
2020/12/23 11:33:03;;;;;;;;;;;;;;;;;;5095027;28;20390;-72
2020/12/23 11:35:30;;;;;;;;;;;;;;;;;;5094058;28;20432;-69
2020/12/23 11:37:57;;;;;;;;;;;;;;;;;;5094109;28;19986;-69
2020/12/23 11:40:32;;;;;;;;;;;;;;;;;;5098387;28;20260;-68
2020/12/23 11:42:59;;;;;;;;;;;;;;;;;;5093608;28;19970;-69
2020/12/23 11:45:26;;;;;;;;;;;;;;;;;;5089959;28;19938;-69
2020/12/23 11:47:53;;;;;;;;;;;;;;;;;;5091241;28;20661;-68
2020/12/23 11:50:20;;;;;;;;;;;;;;;;;;5087856;28;19928;-69
2020/12/23 11:52:47;;;;;;;;;;;;;;;;;;5094136;28;20397;-69
2020/12/23 11:55:18;;;;;;;;;;;;;;;;;;5089207;28;19928;-69
2020/12/23 11:57:45;;;;;;;;;;;;;;;;;;5095130;28;20401;-71
2020/12/23 12:00:12;;;;;;;;;;;;;;;;;;5085492;28;19928;-69
2020/12/23 12:02:39;;;;;;;;;;;;;;;;;;5092078;28;19962;-69
2020/12/23 12:05:06;;;;;;;;;;;;;;;;;;5099569;28;20001;-69
2020/12/23 12:07:33;;;;;;;;;;;;;;;;;;5095870;28;19942;-70
2020/12/23 12:10:01;;;;;;;;;;;;;;;;;;5092261;28;19928;-69
2020/12/23 12:12:28;;;;;;;;;;;;;;;;;;5093932;28;19928;-68
2020/12/23 12:14:55;;;;;;;;;;;;;;;;;;5099040;28;19934;-69
2020/12/23 12:17:23;;;;;;;;;;;;;;;;;;5094629;28;19931;-69
2020/12/23 12:19:50;;;;;;;;;;;;;;;;;;5094945;28;19934;-69
2020/12/23 12:22:17;;;;;;;;;;;;;;;;;;5092840;28;20022;-68
2020/12/23 12:24:44;;;;;;;;;;;;;;;;;;5103884;28;20347;-68
2020/12/23 12:27:11;;;;;;;;;;;;;;;;;;5102221;28;20391;-68
2020/12/23 12:29:38;;;;;;;;;;;;;;;;;;5097256;28;20051;-70
2020/12/23 12:32:05;;;;;;;;;;;;;;;;;;5092289;28;19928;-70
2020/12/23 12:34:32;;;;;;;;;;;;;;;;;;5101544;28;20284;-70
2020/12/23 12:36:59;;;;;;;;;;;;;;;;;;5096045;28;19928;-69
2020/12/23 12:39:27;;;;;;;;;;;;;;;;;;5090112;28;20014;-70
2020/12/23 12:41:55;;;;;;;;;;;;;;;;;;5095540;28;19928;-70
2020/12/23 12:44:22;;;;;;;;;;;;;;;;;;5091955;28;19936;-71
2020/12/23 12:46:50;;;;;;;;;;;;;;;;;;5092810;28;19930;-69
2020/12/23 12:49:17;;;;;;;;;;;;;;;;;;5093627;28;19968;-71
2020/12/23 12:51:44;;;;;;;;;;;;;;;;;;5095308;28;19998;-70
2020/12/23 12:54:11;;;;;;;;;;;;;;;;;;5093355;28;20027;-72
2020/12/23 12:56:38;;;;;;;;;;;;;;;;;;5101001;28;19924;-70
2020/12/23 12:59:05;;;;;;;;;;;;;;;;;;5088667;28;20015;-70
2020/12/23 13:01:33;;;;;;;;;;;;;;;;;;5098622;28;19928;-71
2020/12/23 13:04:00;;;;;;;;;;;;;;;;;;5090788;28;19928;-70
2020/12/23 13:06:27;;;;;;;;;;;;;;;;;;5098682;28;20373;-70
2020/12/23 13:08:54;;;;;;;;;;;;;;;;;;5100448;28;19928;-69
2020/12/23 13:11:28;;;;;;;;;;;;;;;;;;5094662;28;20673;-72
2020/12/23 13:13:55;;;;;;;;;;;;;;;;;;5093917;28;20042;-69
2020/12/23 13:16:22;;;;;;;;;;;;;;;;;;5090286;28;19928;-69
2020/12/23 13:18:50;;;;;;;;;;;;;;;;;;5089297;28;20013;-70
2020/12/23 13:21:17;;;;;;;;;;;;;;;;;;5098292;28;19954;-69
2020/12/23 13:23:44;;;;;;;;;;;;;;;;;;5098235;28;19934;-69
2020/12/23 13:26:11;;;;;;;;;;;;;;;;;;5093137;28;19928;-70
2020/12/23 13:28:38;;;;;;;;;;;;;;;;;;5097209;28;19932;-71
2020/12/23 13:31:08;;;;;;;;;;;;;;;;;;5091602;28;20014;-69
2020/12/23 13:33:36;;;;;;;;;;;;;;;;;;5089507;28;20018;-70
2020/12/23 13:36:03;;;;;;;;;;;;;;;;;;5099035;28;19932;-72
2020/12/23 13:38:30;;;;;;;;;;;;;;;;;;5095225;28;19928;-71
2020/12/23 13:40:57;;;;;;;;;;;;;;;;;;5090538;28;20378;-70
2020/12/23 13:43:25;;;;;;;;;;;;;;;;;;5089941;28;20398;-70
2020/12/23 13:45:52;;;;;;;;;;;;;;;;;;5088787;28;19928;-70
2020/12/23 13:48:19;;;;;;;;;;;;;;;;;;5095217;28;20426;-69
2020/12/23 13:50:46;;;;;;;;;;;;;;;;;;5102703;28;19978;-70
2020/12/23 13:53:13;;;;;;;;;;;;;;;;;;5095875;28;19931;-70
2020/12/23 13:55:41;;;;;;;;;;;;;;;;;;5094532;28;19949;-70
2020/12/23 13:58:08;;;;;;;;;;;;;;;;;;5097907;28;20019;-69
2020/12/23 14:00:35;;;;;;;;;;;;;;;;;;5093570;28;20299;-70
2020/12/23 14:03:02;;;;;;;;;;;;;;;;;;5095670;28;19923;-70
2020/12/23 14:05:29;;;;;;;;;;;;;;;;;;5096135;28;20018;-70
2020/12/23 14:07:57;;;;;;;;;;;;;;;;;;5099166;28;19928;-69
2020/12/23 14:10:24;;;;;;;;;;;;;;;;;;5099739;28;20349;-69
2020/12/23 14:12:52;;;;;;;;;;;;;;;;;;5102830;28;19957;-69
2020/12/23 14:15:20;;;;;;;;;;;;;;;;;;5108585;28;20011;-72
2020/12/23 14:17:47;;;;;;;;;;;;;;;;;;5092758;28;20428;-69
2020/12/23 14:20:15;;;;;;;;;;;;;;;;;;5098007;28;19971;-69
2020/12/23 14:22:43;;;;;;;;;;;;;;;;;;5100495;28;20282;-70
2020/12/23 14:25:10;;;;;;;;;;;;;;;;;;5107422;28;20014;-68
2020/12/23 14:27:37;;;;;;;;;;;;;;;;;;5091472;28;20347;-71
2020/12/23 14:30:05;;;;;;;;;;;;;;;;;;5096349;28;19963;-72
2020/12/23 14:32:32;;;;;;;;;;;;;;;;;;5094716;28;19928;-70
2020/12/23 14:34:59;;;;;;;;;;;;;;;;;;5101839;28;20405;-73
2020/12/23 14:37:26;;;;;;;;;;;;;;;;;;5100570;28;20429;-70
2020/12/23 14:39:53;;;;;;;;;;;;;;;;;;5100259;28;19939;-69
2020/12/23 14:42:24;;;;;;;;;;;;;;;;;;5104456;28;20133;-70
2020/12/23 14:44:52;;;;;;;;;;;;;;;;;;5106392;28;19971;-69
2020/12/23 14:47:19;;;;;;;;;;;;;;;;;;5094909;28;19923;-70
2020/12/23 14:49:46;;;;;;;;;;;;;;;;;;5103311;28;19924;-69
2020/12/23 14:52:13;;;;;;;;;;;;;;;;;;5100412;28;19938;-69
2020/12/23 14:54:40;;;;;;;;;;;;;;;;;;5096601;28;20443;-69
2020/12/23 14:57:07;;;;;;;;;;;;;;;;;;5095350;28;19939;-73
2020/12/23 14:59:34;;;;;;;;;;;;;;;;;;5089910;28;20022;-75
2020/12/23 15:02:01;;;;;;;;;;;;;;;;;;5090935;28;20375;-70
2020/12/23 15:04:32;;;;;;;;;;;;;;;;;;5095887;28;19971;-71
2020/12/23 15:06:59;;;;;;;;;;;;;;;;;;5091609;28;19928;-71
2020/12/23 15:09:26;;;;;;;;;;;;;;;;;;5107213;28;20011;-70
2020/12/23 15:11:54;;;;;;;;;;;;;;;;;;5090858;28;19928;-71
2020/12/23 15:14:21;;;;;;;;;;;;;;;;;;5101135;28;20322;-71
2020/12/23 15:16:48;;;;;;;;;;;;;;;;;;5096014;28;19924;-71
2020/12/23 15:19:15;;;;;;;;;;;;;;;;;;5090289;28;19928;-70
2020/12/23 15:21:42;;;;;;;;;;;;;;;;;;5091111;28;20031;-71
2020/12/23 15:24:09;;;;;;;;;;;;;;;;;;5110406;28;19928;-73
2020/12/23 15:26:37;;;;;;;;;;;;;;;;;;5107472;28;19928;-70
2020/12/23 15:29:04;;;;;;;;;;;;;;;;;;5093454;28;20474;-77
2020/12/23 15:31:31;;;;;;;;;;;;;;;;;;5090736;28;20545;-72
2020/12/23 15:33:58;;;;;;;;;;;;;;;;;;5091474;28;19928;-71
2020/12/23 15:36:25;;;;;;;;;;;;;;;;;;5090286;28;19928;-77
2020/12/23 15:38:52;;;;;;;;;;;;;;;;;;5094809;28;19932;-70
2020/12/23 15:41:20;;;;;;;;;;;;;;;;;;5093673;28;20031;-70
2020/12/23 15:43:47;;;;;;;;;;;;;;;;;;5095224;28;19977;-69
2020/12/23 15:46:14;;;;;;;;;;;;;;;;;;5097815;28;20366;-70
2020/12/23 15:48:41;;;;;;;;;;;;;;;;;;5095096;28;19950;-73
2020/12/23 15:51:08;;;;;;;;;;;;;;;;;;5096251;28;20379;-72
2020/12/23 15:53:36;;;;;;;;;;;;;;;;;;5112290;28;20730;-72
2020/12/23 15:56:03;;;;;;;;;;;;;;;;;;5095406;28;19978;-72
2020/12/23 15:58:31;;;;;;;;;;;;;;;;;;5104272;28;20320;-70
2020/12/23 16:00:58;;;;;;;;;;;;;;;;;;5095535;28;19931;-70
2020/12/23 16:03:25;;;;;;;;;;;;;;;;;;5104056;28;19946;-74
2020/12/23 16:05:52;;;;;;;;;;;;;;;;;;5094069;28;20371;-70
2020/12/23 16:08:19;;;;;;;;;;;;;;;;;;5103089;28;19932;-63
2020/12/23 16:10:46;;;;;;;;;;;;;;;;;;5097405;28;20516;-63
2020/12/23 16:13:20;;;;;;;;;;;;;;;;;;5088615;28;20023;-66
2020/12/23 16:15:47;;;;;;;;;;;;;;;;;;5093452;28;19935;-65
2020/12/23 16:18:14;;;;;;;;;;;;;;;;;;5092521;28;19928;-65
2020/12/23 16:20:41;;;;;;;;;;;;;;;;;;5097900;28;19951;-63
2020/12/23 16:23:08;;;;;;;;;;;;;;;;;;5093840;28;19924;-63
2020/12/23 16:25:37;;;;;;;;;;;;;;;;;;5090897;28;20703;-64
2020/12/23 16:28:04;;;;;;;;;;;;;;;;;;5101591;28;19993;-65
2020/12/23 16:30:31;;;;;;;;;;;;;;;;;;5091162;28;20181;-67
2020/12/23 16:32:59;;;;;;;;;;;;;;;;;;5089507;28;20345;-65
2020/12/23 16:35:26;;;;;;;;;;;;;;;;;;5086853;28;19938;-67
2020/12/23 16:37:53;;;;;;;;;;;;;;;;;;5097763;28;19978;-65
2020/12/23 16:40:20;;;;;;;;;;;;;;;;;;5078049;28;20011;-65
2020/12/23 16:42:47;;;;;;;;;;;;;;;;;;5083476;28;20026;-69
2020/12/23 16:45:14;;;;;;;;;;;;;;;;;;5076626;28;19928;-70
2020/12/23 16:47:41;;;;;;;;;;;;;;;;;;5082023;28;19997;-71